• Join FlightAware (Why Join?)
  • Login
  • US Flag 
11:31AM EDT


 

Airport Tracker/Info


-or-


 

Live Flight TrackerFlight Track Log ✈ CSQ777 ✈ 26-Jun-2014 ✈ MYAF / ASD - KPIE

Flight Track Log - Related Links

Times and Time Zones

All times are in EDT time to prevent confusion due to time zone crossing. See the CSQ777 flight status page for this flight to view local times or setup timezone preferences in your user account.

Time Position Orientation Groundspeed Altitude Reporting Facility
EDT Latitude Longitude Course Direction KTS MPH feet Rate Location/Type
03:23PM 24.8817 -77.9861 306° West 200 230 10,000  Level Miami Center
03:25PM 24.9403 -78.0744 306° West 178 205 11,600 720 Climbing Miami Center
03:27PM 24.9054 -78.1081 306° West  Level FlightAware Approximate
03:27PM 24.9798 -78.1702 295° West  Level FlightAware Approximate
03:28PM 24.9418 -78.1627 306° West  Level FlightAware Approximate
03:34PM 25.2380 -78.5508 270° West  Level Estimated
03:35PM 25.2748 -78.6053 310° West  Level Estimated
03:36PM 25.3055 -78.6643 300° West  Level FlightAware Approximate
03:37PM 25.3423 -78.7188 306° West  Level Estimated
03:38PM 25.3778 -78.7745 305° West  Level FlightAware Approximate
03:39PM 25.4132 -78.8301 305° West  Level FlightAware Approximate
03:40PM 25.4486 -78.8859 305° West  Level FlightAware Approximate
03:41PM 25.4840 -78.9416 305° West  Level FlightAware Approximate
03:42PM 25.5194 -78.9974 305° West  Level FlightAware Approximate
03:43PM 25.5547 -79.0532 305° West  Level FlightAware Approximate
03:44PM 25.5900 -79.1090 305° West  Level FlightAware Approximate
03:45PM 25.6253 -79.1649 305° West  Level FlightAware Approximate
03:46PM 25.6606 -79.2208 305° West  Level FlightAware Approximate
03:47PM 25.6974 -79.2755 294° West  Level Estimated
03:48PM 25.7228 -79.3377 294° West  Level FlightAware Approximate
03:49PM 25.7481 -79.3999 294° West  Level FlightAware Approximate
03:50PM 25.7735 -79.4622 294° West  Level FlightAware Approximate
03:51PM 25.7988 -79.5245 294° West  Level FlightAware Approximate
03:52PM 25.8240 -79.5868 294° West  Level FlightAware Approximate
03:53PM 25.8493 -79.6491 294° West  Level FlightAware Approximate
03:54PM 25.8871 -79.7030 296° West  Level Estimated
03:55PM 25.9123 -79.7654 294° West  Level FlightAware Approximate
03:56PM 25.9374 -79.8279 294° West  Level FlightAware Approximate
03:57PM 25.9626 -79.8903 294° West  Level FlightAware Approximate
03:58PM 25.9877 -79.9528 294° West  Level FlightAware Approximate
03:59PM 26.0128 -80.0153 294° West  Level FlightAware Approximate
04:00PM 26.0378 -80.0778 294° West  Level FlightAware Approximate
04:01PM 26.0769 -80.1308 305° West  Level Estimated
04:02PM 26.1091 -80.1891 302° West  Level FlightAware Approximate
04:03PM 26.1413 -80.2475 302° West  Level FlightAware Approximate
04:04PM 26.1735 -80.3059 302° West  Level FlightAware Approximate
04:05PM 26.2057 -80.3643 302° West  Level FlightAware Approximate
04:06PM 26.2378 -80.4228 302° West  Level FlightAware Approximate
04:07PM 26.2699 -80.4813 301° West  Level FlightAware Approximate
04:08PM 26.3097 -80.5336 305° West  Level Estimated
04:09PM 26.3440 -80.5906 304° West  Level FlightAware Approximate
04:10PM 26.3783 -80.6476 304° West  Level FlightAware Approximate
04:11PM 26.4125 -80.7047 304° West  Level FlightAware Approximate
04:12PM 26.4468 -80.7618 304° West  Level FlightAware Approximate
04:13PM 26.4810 -80.8189 304° West  Level FlightAware Approximate
04:14PM 26.5152 -80.8761 304° West  Level FlightAware Approximate
04:15PM 26.5493 -80.9332 304° West  Level FlightAware Approximate
04:16PM 26.5835 -80.9905 304° West  Level FlightAware Approximate
04:17PM 26.6176 -81.0477 304° West  Level FlightAware Approximate
04:18PM 26.6517 -81.1050 304° West  Level FlightAware Approximate
04:19PM 26.6857 -81.1623 304° West  Level FlightAware Approximate
04:20PM 26.7198 -81.2197 304° West  Level FlightAware Approximate
04:21PM 26.7538 -81.2771 304° West  Level FlightAware Approximate
04:22PM 26.7878 -81.3345 304° West  Level FlightAware Approximate
04:23PM 26.8300 -81.3847 312° West  Level Estimated
04:24PM 26.8722 -81.4348 314° West  Level Estimated
04:25PM 26.9118 -81.4877 310° West  Level FlightAware Approximate
04:26PM 26.9513 -81.5405 310° West  Level FlightAware Approximate
04:27PM 26.9937 -81.5906 315° West  Level Estimated
04:28PM 27.0369 -81.6398 315° West  Level FlightAware Approximate
04:29PM 27.0800 -81.6890 315° West  Level FlightAware Approximate
04:30PM 27.1222 -81.7393 307° West  Level Estimated
04:31PM 27.1645 -81.7896 318° Northwest  Level Estimated
04:32PM 27.2085 -81.8379 316° Northwest  Level FlightAware Approximate
04:33PM 27.2506 -81.8883 309° West  Level Estimated
04:34PM 27.2910 -81.9405 311° West  Level FlightAware Approximate
04:35PM 27.3332 -81.9909 314° West  Level Estimated
04:36PM 27.3750 -82.0418 313° West  Level FlightAware Approximate
04:37PM 27.4167 -82.0927 313° West  Level FlightAware Approximate
04:38PM 27.4589 -82.1432 307° West  Level Estimated
04:39PM 27.5010 -82.1937 310° West  Level Estimated
04:40PM 27.5430 -82.2444 313° West  Level FlightAware Approximate
04:41PM 27.5850 -82.2951 313° West  Level FlightAware Approximate
04:42PM 27.6271 -82.3457 312° West  Level Estimated
04:43PM 27.6692 -82.3964 318° Northwest  Level Estimated
04:44PM 27.7113 -82.4471 310° West  Level Estimated
04:45PM 27.7535 -82.4976 313° West  Level FlightAware Approximate
04:46PM 27.7955 -82.5485 312° West  Level Estimated
04:47PM 27.8374 -82.5993 310° West  Level Estimated
04:48PM 27.8793 -82.6503 North  Level Estimated
04:49PM 27.9100 -82.6875 305° West  Level Estimated
04:50PM 27.9100 -82.6875 North  Level Estimated
04:51PM 27.9100 -82.6875 160° South  Level Estimated
04:52PM 27.9100 -82.6875 North  Level Estimated
04:53PM 27.9100 -82.6875 160° South  Level Estimated
04:54PM 27.9100 -82.6875 North  Level Estimated
04:55PM 27.9100 -82.6875 160° South  Level Estimated
04:56PM 27.9100 -82.6875 North  Level Estimated
04:57PM 27.9100 -82.6875 160° South  Level Estimated
04:58PM 27.9100 -82.6875 North  Level Estimated
04:59PM 27.9100 -82.6875 160° South  Level Estimated
05:00PM 27.9100 -82.6875 North  Level Estimated
05:01PM 27.9100 -82.6875 160° South  Level Estimated
05:02PM 27.9100 -82.6875 North  Level Estimated
05:03PM 27.9100 -82.6875 160° South  Level Estimated
05:04PM 27.9100 -82.6875 North  Level Estimated
05:05PM 27.9100 -82.6875 160° South  Level Estimated
05:06PM 27.9100 -82.6875 North  Level Estimated